createdAt,value
2022-08-11T05:27:59.210Z,2.07
2022-08-11T05:30:48.430Z,2.17
2022-08-11T05:33:42.281Z,2.20
2022-08-11T05:36:17.523Z,2.23
2022-08-11T05:39:10.860Z,2.07
2022-08-11T05:41:55.810Z,2.07
2022-08-11T05:44:40.866Z,2.20
2022-08-11T05:47:26.889Z,2.43
2022-08-11T05:50:13.499Z,2.10
2022-08-11T05:53:04.093Z,2.20
2022-08-11T05:55:54.588Z,1.97
2022-08-11T05:58:42.393Z,2.03
2022-08-11T06:01:13.347Z,2.33
2022-08-11T06:03:59.577Z,2.00
2022-08-11T06:06:26.336Z,2.13
2022-08-11T06:08:55.858Z,2.13
2022-08-11T06:11:43.010Z,2.20
2022-08-11T06:14:10.650Z,2.23
2022-08-11T06:16:37.510Z,1.87
2022-08-11T06:19:04.473Z,2.20
2022-08-11T06:21:33.692Z,1.87
2022-08-11T06:24:00.477Z,2.10
2022-08-11T06:26:27.160Z,1.87
2022-08-11T06:28:53.817Z,1.77
2022-08-11T06:31:23.957Z,1.70
2022-08-11T06:33:50.598Z,2.10
2022-08-11T06:36:34.230Z,2.43
2022-08-11T06:39:38.648Z,2.20
2022-08-11T06:42:14.433Z,2.20
2022-08-11T06:44:43.163Z,2.10
2022-08-11T06:47:11.848Z,1.70
2022-08-11T06:50:01.490Z,1.97
2022-08-11T06:52:35.647Z,1.87
2022-08-11T06:55:57.895Z,1.63
2022-08-11T06:58:53.017Z,1.40
2022-08-11T07:01:34.948Z,1.50
2022-08-11T07:04:09.045Z,1.30
2022-08-11T07:06:51.202Z,1.43
2022-08-11T07:10:20.433Z,1.47
2022-08-11T07:13:06.191Z,1.50
2022-08-11T07:16:09.080Z,1.10
2022-08-11T07:18:52.331Z,1.30
2022-08-11T07:22:01.535Z,1.37
2022-08-11T07:24:59.273Z,1.30
2022-08-11T07:27:50.875Z,1.13
2022-08-11T07:30:17.545Z,1.20
2022-08-11T07:32:52.753Z,1.13
2022-08-11T07:35:33.317Z,1.13
2022-08-11T07:38:07.040Z,1.15
2022-08-11T07:40:34.738Z,1.48
2022-08-11T07:43:01.546Z,1.33
2022-08-11T07:45:47.130Z,2.22
2022-08-11T07:48:33.249Z,2.20
2022-08-11T07:51:18.832Z,2.35
2022-08-11T07:53:58.363Z,2.28
2022-08-11T07:56:55.312Z,2.80
2022-08-11T08:00:00.490Z,2.45
2022-08-11T08:02:45.847Z,2.42
2022-08-11T08:05:30.910Z,2.20
2022-08-11T08:08:17.230Z,2.50
2022-08-11T08:11:02.492Z,2.35
2022-08-11T08:13:48.576Z,1.77
2022-08-11T08:16:44.303Z,1.90
2022-08-11T08:19:13.339Z,2.05
2022-08-11T08:21:39.974Z,2.17
2022-08-11T08:24:12.001Z,2.00
2022-08-11T08:26:57.105Z,1.83
2022-08-11T08:29:42.789Z,1.73
2022-08-11T08:32:11.111Z,1.70
2022-08-11T08:34:38.066Z,1.60
2022-08-11T08:37:15.911Z,1.58
2022-08-11T08:39:52.560Z,1.60
2022-08-11T08:42:24.113Z,1.60
2022-08-11T08:44:53.577Z,1.90
2022-08-11T08:47:42.698Z,2.00
2022-08-11T08:50:10.632Z,1.92
2022-08-11T08:52:47.547Z,2.10
2022-08-11T08:55:17.906Z,1.90
2022-08-11T08:57:44.643Z,1.77
2022-08-11T09:00:13.087Z,1.52
2022-08-11T09:02:42.146Z,1.50
2022-08-11T09:05:09.893Z,2.00
2022-08-11T09:07:39.852Z,1.30
2022-08-11T09:10:11.068Z,1.63
2022-08-11T09:12:39.386Z,1.20
2022-08-11T09:15:07.961Z,1.30
2022-08-11T09:17:40.783Z,1.70
2022-08-11T09:20:29.300Z,1.65
2022-08-11T09:26:22.718Z,1.73
2022-08-11T09:28:57.837Z,1.80
2022-08-11T09:31:26.641Z,1.60
2022-08-11T09:33:54.493Z,1.30
2022-08-11T09:36:39.530Z,1.40
2022-08-11T09:39:24.725Z,1.58
2022-08-11T09:42:01.757Z,1.45
2022-08-11T09:44:49.836Z,1.80
2022-08-11T09:47:28.308Z,1.40
2022-08-11T09:50:02.152Z,1.40
2022-08-11T09:52:34.906Z,1.30
2022-08-11T09:55:01.589Z,1.40
2022-08-11T09:57:46.701Z,1.10
2022-08-11T10:00:15.024Z,1.20
2022-08-11T10:02:48.785Z,1.50
2022-08-11T10:05:37.332Z,1.60
2022-08-11T10:08:04.797Z,1.55
2022-08-11T10:10:31.621Z,1.63
2022-08-11T10:12:59.984Z,1.50
2022-08-11T10:15:35.348Z,1.45
2022-08-11T10:18:24.966Z,1.10
2022-08-11T10:20:52.578Z,1.20
2022-08-11T10:24:01.025Z,1.50
2022-08-11T10:26:44.328Z,1.38
2022-08-11T10:29:36.766Z,1.60
2022-08-11T10:32:24.689Z,1.50
2022-08-11T10:34:58.958Z,1.40
2022-08-11T10:37:26.147Z,1.17
2022-08-11T10:40:17.120Z,1.40
2022-08-11T10:43:02.466Z,1.10
2022-08-11T10:45:48.853Z,1.10
2022-08-11T10:48:15.871Z,1.15
2022-08-11T10:51:04.485Z,1.27
2022-08-11T10:53:49.606Z,1.02
2022-08-11T10:56:35.755Z,1.00
2022-08-11T10:59:04.117Z,1.30
2022-08-11T11:01:33.262Z,1.30
2022-08-11T11:04:07.713Z,1.20
2022-08-11T11:06:56.134Z,1.20
2022-08-11T11:09:32.998Z,1.30
2022-08-11T11:12:25.850Z,1.20
2022-08-11T11:15:17.524Z,1.30
2022-08-11T11:18:07.339Z,1.40
2022-08-11T11:20:40.774Z,0.98
2022-08-11T11:23:20.019Z,1.20
2022-08-11T11:26:27.660Z,1.10
2022-08-11T11:29:16.337Z,1.20
2022-08-11T11:32:18.903Z,1.17
2022-08-11T11:35:08.745Z,1.10
2022-08-11T11:37:35.604Z,1.00
2022-08-11T11:40:03.403Z,1.10
2022-08-11T11:42:30.138Z,1.17
2022-08-11T11:44:59.429Z,1.45
2022-08-11T11:47:27.906Z,1.42
2022-08-11T11:49:54.543Z,1.20
2022-08-11T11:52:21.856Z,1.20
2022-08-11T11:54:50.253Z,1.50
2022-08-11T11:57:36.425Z,1.40
2022-08-11T12:00:32.894Z,1.20
2022-08-11T12:03:05.492Z,1.40
2022-08-11T12:05:33.696Z,1.20
2022-08-11T12:08:16.085Z,1.23
2022-08-11T12:11:21.106Z,1.15
2022-08-11T12:13:50.328Z,1.30
2022-08-11T12:16:34.592Z,1.27
2022-08-11T12:19:15.618Z,1.20
2022-08-11T12:22:02.414Z,1.20
2022-08-11T12:24:48.630Z,1.02
2022-08-11T12:27:24.287Z,1.00
2022-08-11T12:29:55.597Z,0.93
2022-08-11T12:32:24.444Z,1.00
2022-08-11T12:34:51.122Z,1.02
2022-08-11T12:37:23.541Z,1.17
2022-08-11T12:40:16.219Z,1.13
2022-08-11T12:43:21.018Z,1.10
2022-08-11T12:45:51.023Z,1.00
2022-08-11T12:48:59.345Z,1.23
2022-08-11T12:52:03.014Z,1.00
2022-08-11T12:54:57.017Z,1.05
2022-08-11T12:57:56.539Z,1.10
2022-08-11T13:00:42.233Z,1.40
2022-08-11T13:03:28.206Z,1.40
2022-08-11T13:05:56.908Z,1.20
2022-08-11T13:08:25.036Z,1.08
2022-08-11T13:11:11.104Z,1.10
2022-08-11T13:13:54.099Z,0.90
2022-08-11T13:16:25.181Z,1.10
2022-08-11T13:18:53.430Z,1.17
2022-08-11T13:21:21.150Z,1.00
2022-08-11T13:24:01.294Z,1.05
2022-08-11T13:26:47.740Z,1.20
2022-08-11T13:29:24.716Z,1.00
2022-08-11T13:31:52.654Z,1.20
2022-08-11T13:34:19.973Z,1.20
2022-08-11T13:36:47.954Z,1.33
2022-08-11T13:39:14.651Z,1.40
2022-08-11T13:41:42.208Z,0.95
2022-08-11T13:44:10.258Z,1.00
2022-08-11T13:46:37.690Z,1.20
2022-08-11T13:49:08.144Z,1.20
2022-08-11T13:51:35.394Z,1.10
2022-08-11T13:54:07.564Z,1.15
2022-08-11T13:56:34.792Z,0.90
2022-08-11T13:59:01.785Z,1.10
2022-08-11T14:02:03.893Z,1.30
2022-08-11T14:04:37.600Z,1.20
2022-08-11T14:07:06.532Z,1.30
2022-08-11T14:09:37.432Z,0.82
2022-08-11T14:12:27.622Z,1.00
2022-08-11T14:18:11.731Z,1.10
2022-08-11T14:20:59.382Z,1.02
2022-08-11T14:23:32.670Z,1.10
2022-08-11T14:26:17.765Z,0.98
2022-08-11T14:28:45.465Z,1.10
2022-08-11T14:31:14.316Z,1.10
2022-08-11T14:34:00.512Z,0.93
2022-08-11T14:36:29.735Z,1.15
2022-08-11T14:38:56.578Z,1.10
2022-08-11T14:42:10.151Z,1.05
2022-08-11T14:44:47.021Z,1.00
2022-08-11T14:47:24.549Z,1.08
2022-08-11T14:49:58.228Z,0.95
2022-08-11T14:52:37.388Z,0.98
2022-08-11T14:55:22.945Z,1.17
2022-08-11T14:57:55.027Z,1.00
2022-08-11T15:00:23.284Z,1.10
2022-08-11T15:03:08.415Z,1.20
2022-08-11T15:05:36.318Z,1.00
2022-08-11T15:08:03.058Z,1.02
2022-08-11T15:10:29.672Z,1.17
2022-08-11T15:12:56.328Z,1.30
2022-08-11T15:15:41.349Z,1.17
2022-08-11T15:18:08.082Z,1.10
2022-08-11T15:20:53.508Z,1.10
2022-08-11T15:23:38.967Z,1.15
2022-08-11T15:26:55.847Z,1.10
2022-08-11T15:29:42.615Z,1.00
2022-08-11T15:32:22.211Z,1.48
2022-08-11T15:35:18.118Z,1.50
2022-08-11T15:37:45.325Z,1.20
2022-08-11T15:40:37.929Z,1.20
2022-08-11T15:43:29.144Z,0.95
2022-08-11T15:46:02.130Z,1.00
2022-08-11T15:48:59.421Z,1.40
2022-08-11T15:51:36.937Z,1.30
2022-08-11T15:54:09.713Z,1.38
2022-08-11T15:56:38.476Z,1.48
2022-08-11T15:59:41.828Z,1.13
2022-08-11T16:02:30.661Z,1.00
2022-08-11T16:04:58.397Z,1.00
2022-08-11T16:07:27.301Z,1.00
2022-08-11T16:10:19.507Z,0.95
2022-08-11T16:13:06.014Z,0.80
2022-08-11T16:15:51.982Z,1.00
2022-08-11T16:18:40.437Z,1.20
2022-08-11T16:21:34.011Z,1.10
2022-08-11T16:24:06.356Z,1.08
2022-08-11T16:27:10.629Z,0.93
2022-08-11T16:29:19.651Z,1.00
2022-08-11T16:32:06.240Z,0.95
2022-08-11T16:34:51.306Z,1.10
2022-08-11T16:37:36.910Z,1.17
2022-08-11T16:40:04.533Z,0.98
2022-08-11T16:43:06.101Z,0.80
2022-08-11T16:45:54.927Z,1.17
2022-08-11T16:48:37.027Z,0.90
2022-08-11T16:51:07.987Z,1.10
2022-08-11T16:54:03.474Z,0.90
2022-08-11T16:56:31.255Z,1.30
2022-08-11T16:59:18.326Z,1.00
2022-08-11T17:01:52.910Z,1.13
2022-08-11T17:05:02.256Z,0.90
2022-08-11T17:07:48.247Z,0.77
2022-08-11T17:10:51.960Z,0.85
2022-08-11T17:13:33.646Z,1.10
2022-08-11T17:16:07.549Z,1.27
2022-08-11T17:18:45.480Z,1.05
2022-08-11T17:21:29.758Z,1.00
2022-08-11T17:24:05.073Z,1.00
2022-08-11T17:26:59.623Z,1.10
2022-08-11T17:29:54.689Z,1.20
2022-08-11T17:32:57.302Z,1.05
2022-08-11T17:35:34.624Z,1.10
2022-08-11T17:38:04.170Z,1.08
2022-08-11T17:40:32.481Z,1.40
2022-08-11T17:43:17.638Z,1.00
2022-08-11T17:46:03.615Z,0.90
2022-08-11T17:48:32.786Z,1.10
2022-08-11T17:51:04.377Z,1.10
2022-08-11T17:54:24.257Z,1.05
2022-08-11T17:57:10.115Z,1.00
2022-08-11T17:59:53.634Z,0.93
2022-08-11T18:02:52.649Z,1.00
2022-08-11T18:05:21.829Z,1.15
2022-08-11T18:08:08.929Z,0.80
2022-08-11T18:10:54.518Z,0.98
2022-08-11T18:13:41.456Z,0.90
2022-08-11T18:16:26.945Z,0.85
2022-08-11T18:19:12.083Z,0.98
2022-08-11T18:22:11.133Z,1.15
2022-08-11T18:25:03.808Z,1.00
2022-08-11T18:27:49.898Z,1.02
2022-08-11T18:30:34.823Z,1.00
2022-08-11T18:36:25.994Z,1.00
2022-08-11T18:39:11.186Z,0.90
2022-08-11T18:41:56.380Z,1.00
2022-08-11T18:44:44.490Z,0.80
2022-08-11T18:47:30.346Z,0.80
2022-08-11T18:50:18.119Z,1.08
2022-08-11T18:53:12.801Z,1.00
2022-08-11T18:55:58.465Z,1.10
2022-08-11T18:58:46.932Z,1.10
2022-08-11T19:01:33.126Z,0.90
2022-08-11T19:04:19.347Z,1.13
2022-08-11T19:07:04.833Z,1.30
2022-08-11T19:09:49.854Z,1.17
2022-08-11T19:12:34.923Z,1.30
2022-08-11T19:15:20.071Z,1.42
2022-08-11T19:18:05.236Z,1.10
2022-08-11T19:20:51.168Z,1.10
2022-08-11T19:23:39.758Z,1.20
2022-08-11T19:26:24.854Z,1.35
2022-08-11T19:29:09.814Z,1.17
2022-08-11T19:32:14.882Z,1.40
2022-08-11T19:35:00.121Z,1.30
2022-08-11T19:37:45.139Z,1.52
2022-08-11T19:40:30.793Z,1.30
2022-08-11T19:43:23.690Z,1.50
2022-08-11T19:46:13.700Z,1.30
2022-08-11T19:48:58.670Z,1.20
2022-08-11T19:51:43.871Z,1.10
2022-08-11T19:54:29.210Z,1.38
2022-08-11T19:57:15.044Z,1.35
2022-08-11T20:00:00.138Z,1.38
2022-08-11T20:02:45.154Z,1.33
2022-08-11T20:05:30.386Z,1.50
2022-08-11T20:08:15.905Z,1.38
2022-08-11T20:11:04.596Z,1.20
2022-08-11T20:20:51.974Z,1.67
2022-08-11T20:23:37.092Z,1.40
2022-08-11T20:26:37.911Z,1.60
2022-08-11T20:29:22.889Z,1.60
2022-08-11T20:32:09.705Z,1.60
2022-08-11T20:34:55.679Z,1.52
2022-08-11T20:37:41.154Z,1.60
2022-08-11T20:40:26.752Z,1.70
2022-08-11T20:44:06.841Z,1.65
2022-08-11T20:46:18.636Z,1.50
2022-08-11T20:49:04.827Z,1.50
2022-08-11T20:51:49.923Z,1.55
2022-08-11T20:54:43.731Z,1.77
2022-08-11T20:57:54.595Z,1.45
2022-08-11T21:00:39.075Z,1.70
2022-08-11T21:03:35.342Z,1.60
2022-08-11T21:06:26.312Z,1.70
2022-08-11T21:09:23.971Z,1.67
2022-08-11T21:12:28.941Z,1.88
2022-08-11T21:15:14.063Z,2.00
2022-08-11T21:18:28.540Z,1.83
2022-08-11T21:21:16.597Z,1.60
2022-08-11T21:24:01.827Z,1.98
2022-08-11T21:26:46.997Z,1.70
2022-08-11T21:29:31.966Z,1.90
2022-08-11T21:32:17.119Z,2.00
2022-08-11T21:35:02.129Z,1.88
2022-08-11T21:37:50.186Z,1.80
2022-08-11T21:40:35.576Z,2.05
2022-08-11T21:43:20.576Z,1.80
2022-08-11T21:46:05.740Z,1.92
2022-08-11T21:48:51.434Z,1.98
2022-08-11T21:51:36.522Z,1.90
2022-08-11T21:54:26.635Z,2.08
2022-08-11T21:57:12.224Z,2.03
2022-08-11T22:00:07.430Z,2.07
2022-08-11T22:02:53.173Z,2.00
2022-08-11T22:05:39.234Z,1.90
2022-08-11T22:08:24.418Z,1.90
2022-08-11T22:11:09.433Z,2.20
2022-08-11T22:14:01.198Z,2.03
2022-08-11T22:16:53.504Z,2.07
2022-08-11T22:19:38.740Z,2.03
2022-08-11T22:22:26.276Z,2.20
2022-08-11T22:25:16.465Z,2.17
2022-08-11T22:28:03.458Z,2.20
2022-08-11T22:30:48.557Z,2.10
2022-08-11T22:33:33.521Z,2.47
2022-08-11T22:36:18.688Z,2.27
2022-08-11T22:39:04.274Z,2.20
2022-08-11T22:41:49.952Z,1.90
2022-08-11T22:44:35.144Z,2.00
2022-08-11T22:47:21.785Z,2.30
2022-08-11T22:50:09.427Z,2.10
2022-08-11T22:52:54.319Z,2.10
2022-08-11T22:55:39.409Z,2.20
2022-08-11T22:58:25.399Z,2.00
2022-08-11T23:01:10.366Z,2.10
2022-08-11T23:03:55.749Z,2.10
2022-08-11T23:06:40.724Z,2.10
2022-08-11T23:09:27.843Z,2.17
2022-08-11T23:12:13.504Z,2.20
2022-08-11T23:14:58.949Z,2.07
2022-08-11T23:17:45.157Z,2.30
2022-08-11T23:20:39.110Z,2.23
2022-08-11T23:23:27.821Z,2.40
2022-08-11T23:26:13.255Z,2.60
2022-08-11T23:28:59.275Z,2.30
2022-08-11T23:31:51.695Z,2.40
2022-08-11T23:35:03.926Z,2.40
2022-08-11T23:37:50.065Z,2.27
2022-08-11T23:40:35.247Z,2.10
2022-08-11T23:43:20.122Z,2.20
2022-08-11T23:46:05.283Z,2.20
2022-08-11T23:48:50.203Z,2.40
2022-08-11T23:51:40.912Z,2.30
2022-08-11T23:54:27.538Z,2.40
2022-08-11T23:57:13.049Z,2.30
2022-08-11T23:59:58.377Z,2.20
